createdAt,value
2022-07-31T00:01:21.189Z,1.67
2022-07-31T00:03:48.022Z,1.47
2022-07-31T00:06:14.643Z,1.60
2022-07-31T00:08:41.188Z,1.50
2022-07-31T00:11:07.731Z,1.60
2022-07-31T00:13:57.363Z,1.40
2022-07-31T00:16:20.924Z,1.60
2022-07-31T00:18:47.486Z,1.87
2022-07-31T00:21:14.081Z,2.00
2022-07-31T00:23:41.110Z,1.80
2022-07-31T00:26:07.942Z,1.40
2022-07-31T00:28:34.604Z,1.60
2022-07-31T00:31:01.270Z,1.73
2022-07-31T00:33:27.955Z,1.50
2022-07-31T00:35:54.513Z,1.50
2022-07-31T00:38:28.324Z,1.73
2022-07-31T00:40:55.252Z,1.77
2022-07-31T00:43:21.804Z,1.60
2022-07-31T00:45:56.331Z,1.80
2022-07-31T00:48:27.597Z,1.60
2022-07-31T00:50:55.192Z,1.70
2022-07-31T00:53:21.766Z,1.70
2022-07-31T00:55:52.032Z,1.80
2022-07-31T00:58:20.173Z,1.70
2022-07-31T01:00:47.241Z,1.73
2022-07-31T01:03:14.425Z,1.60
2022-07-31T01:05:41.791Z,1.63
2022-07-31T01:08:08.606Z,1.70
2022-07-31T01:10:48.335Z,1.50
2022-07-31T01:13:24.384Z,1.70
2022-07-31T01:15:52.361Z,1.43
2022-07-31T01:18:19.084Z,1.60
2022-07-31T01:20:49.570Z,1.70
2022-07-31T01:23:22.677Z,1.60
2022-07-31T01:26:16.658Z,1.60
2022-07-31T01:29:25.470Z,1.80
2022-07-31T01:32:03.698Z,1.60
2022-07-31T01:34:40.038Z,1.77
2022-07-31T01:37:24.105Z,1.87
2022-07-31T01:39:56.156Z,1.53
2022-07-31T01:42:25.718Z,1.70
2022-07-31T01:44:56.375Z,2.03
2022-07-31T01:47:27.690Z,1.70
2022-07-31T01:49:56.074Z,1.87
2022-07-31T01:52:27.228Z,2.10
2022-07-31T01:54:55.545Z,1.40
2022-07-31T01:57:24.626Z,1.60
2022-07-31T01:59:56.327Z,1.50
2022-07-31T02:02:50.606Z,1.90
2022-07-31T02:05:22.328Z,1.80
2022-07-31T02:07:50.311Z,1.67
2022-07-31T02:10:19.633Z,1.70
2022-07-31T02:12:49.404Z,1.80
2022-07-31T02:15:17.591Z,1.70
2022-07-31T02:17:47.190Z,1.60
2022-07-31T02:20:24.899Z,1.87
2022-07-31T02:22:55.766Z,1.70
2022-07-31T02:25:22.665Z,1.80
2022-07-31T02:27:53.562Z,1.73
2022-07-31T02:30:27.660Z,1.80
2022-07-31T02:33:11.563Z,1.80
2022-07-31T02:35:44.160Z,1.77
2022-07-31T02:38:21.681Z,2.00
2022-07-31T02:40:53.215Z,1.60
2022-07-31T02:43:20.409Z,1.70
2022-07-31T02:45:47.478Z,1.80
2022-07-31T02:48:14.376Z,1.50
2022-07-31T02:50:46.421Z,1.83
2022-07-31T02:53:13.300Z,1.63
2022-07-31T02:55:40.316Z,1.80
2022-07-31T02:58:06.906Z,1.43
2022-07-31T03:00:33.963Z,1.70
2022-07-31T03:03:00.736Z,1.83
2022-07-31T03:05:27.500Z,1.93
2022-07-31T03:07:54.129Z,1.50
2022-07-31T03:10:20.744Z,1.90
2022-07-31T03:13:03.871Z,1.70
2022-07-31T03:15:31.940Z,1.57
2022-07-31T03:17:59.127Z,1.90
2022-07-31T03:20:34.602Z,1.93
2022-07-31T03:23:02.546Z,1.83
2022-07-31T03:25:33.068Z,1.80
2022-07-31T03:28:00.184Z,1.80
2022-07-31T03:30:27.369Z,1.50
2022-07-31T03:32:57.333Z,1.90
2022-07-31T03:35:25.315Z,2.10
2022-07-31T03:37:52.173Z,2.00
2022-07-31T03:40:18.985Z,1.70
2022-07-31T03:42:47.580Z,1.70
2022-07-31T03:45:15.804Z,1.70
2022-07-31T03:47:42.797Z,2.00
2022-07-31T03:50:10.950Z,1.73
2022-07-31T03:52:38.324Z,2.00
2022-07-31T03:55:05.844Z,1.80
2022-07-31T03:57:34.219Z,1.70
2022-07-31T04:00:03.049Z,1.97
2022-07-31T04:02:32.607Z,2.13
2022-07-31T04:05:09.797Z,1.67
2022-07-31T04:07:38.084Z,1.60
2022-07-31T04:10:04.994Z,1.77
2022-07-31T04:12:31.590Z,2.00
2022-07-31T04:14:58.392Z,2.03
2022-07-31T04:17:25.889Z,1.80
2022-07-31T04:19:52.455Z,1.83
2022-07-31T04:22:19.107Z,1.93
2022-07-31T04:24:45.912Z,1.90
2022-07-31T04:27:47.974Z,1.60
2022-07-31T04:30:15.262Z,1.90
2022-07-31T04:32:42.083Z,1.80
2022-07-31T04:35:10.831Z,1.70
2022-07-31T04:37:37.831Z,1.90
2022-07-31T04:40:10.940Z,1.90
2022-07-31T04:42:37.583Z,1.93
2022-07-31T04:45:04.513Z,1.70
2022-07-31T04:47:31.115Z,1.97
2022-07-31T04:49:58.233Z,2.00
2022-07-31T04:52:26.585Z,1.70
2022-07-31T04:54:56.097Z,1.90
2022-07-31T04:57:22.804Z,1.90
2022-07-31T04:59:59.265Z,2.10
2022-07-31T05:02:30.258Z,2.40
2022-07-31T05:04:57.610Z,2.10
2022-07-31T05:07:30.272Z,1.90
2022-07-31T05:09:58.617Z,2.03
2022-07-31T05:12:26.078Z,2.00
2022-07-31T05:14:53.408Z,1.80
2022-07-31T05:17:20.353Z,2.07
2022-07-31T05:19:59.346Z,2.03
2022-07-31T05:22:46.150Z,2.17
2022-07-31T05:25:33.026Z,2.00
2022-07-31T05:27:59.571Z,2.00
2022-07-31T05:30:30.610Z,2.10
2022-07-31T05:32:58.451Z,2.07
2022-07-31T05:35:25.583Z,1.90
2022-07-31T05:37:52.146Z,2.03
2022-07-31T05:40:23.597Z,1.70
2022-07-31T05:43:08.656Z,2.10
2022-07-31T05:46:02.033Z,1.60
2022-07-31T05:48:28.775Z,2.10
2022-07-31T05:50:55.423Z,1.83
2022-07-31T05:53:22.418Z,1.87
2022-07-31T05:56:07.539Z,1.80
2022-07-31T05:58:49.377Z,1.63
2022-07-31T06:01:16.437Z,1.70
2022-07-31T06:03:52.496Z,1.53
2022-07-31T06:06:41.243Z,1.70
2022-07-31T06:09:08.011Z,1.90
2022-07-31T06:11:37.541Z,1.80
2022-07-31T06:14:04.138Z,1.97
2022-07-31T06:16:50.143Z,1.80
2022-07-31T06:19:17.153Z,2.03
2022-07-31T06:21:43.700Z,1.70
2022-07-31T06:24:10.803Z,2.03
2022-07-31T06:26:42.965Z,1.70
2022-07-31T06:29:09.656Z,1.53
2022-07-31T06:31:36.390Z,1.77
2022-07-31T06:34:03.310Z,1.70
2022-07-31T06:36:37.635Z,1.55
2022-07-31T06:39:07.164Z,1.30
2022-07-31T06:41:53.760Z,1.57
2022-07-31T06:44:30.316Z,1.60
2022-07-31T06:47:16.486Z,1.53
2022-07-31T06:50:21.254Z,1.40
2022-07-31T06:53:03.419Z,1.87
2022-07-31T06:55:31.308Z,1.80
2022-07-31T06:57:57.946Z,1.90
2022-07-31T07:00:24.549Z,1.73
2022-07-31T07:02:51.436Z,1.70
2022-07-31T07:05:18.158Z,1.63
2022-07-31T07:07:48.796Z,1.80
2022-07-31T07:10:15.584Z,1.70
2022-07-31T07:13:02.432Z,1.60
2022-07-31T07:15:33.009Z,1.65
2022-07-31T07:17:59.636Z,1.60
2022-07-31T07:20:34.941Z,1.42
2022-07-31T07:23:01.635Z,1.13
2022-07-31T07:25:38.174Z,1.40
2022-07-31T07:28:10.962Z,1.40
2022-07-31T07:30:40.112Z,1.50
2022-07-31T07:33:07.016Z,1.40
2022-07-31T07:35:34.204Z,1.60
2022-07-31T07:38:06.063Z,1.90
2022-07-31T07:40:36.973Z,1.77
2022-07-31T07:43:03.700Z,2.00
2022-07-31T07:45:31.162Z,2.15
2022-07-31T07:48:06.530Z,2.08
2022-07-31T07:50:56.908Z,2.67
2022-07-31T07:53:44.677Z,2.37
2022-07-31T07:56:14.328Z,2.30
2022-07-31T07:58:58.920Z,1.88
2022-07-31T08:01:57.218Z,1.80
2022-07-31T08:04:27.413Z,1.90
2022-07-31T08:06:53.990Z,2.00
2022-07-31T08:09:24.329Z,1.75
2022-07-31T08:12:09.720Z,1.98
2022-07-31T08:14:54.952Z,1.70
2022-07-31T08:17:50.741Z,1.58
2022-07-31T08:20:17.358Z,1.80
2022-07-31T08:22:43.971Z,1.58
2022-07-31T08:25:14.325Z,1.60
2022-07-31T08:27:44.381Z,1.60
2022-07-31T08:30:15.606Z,1.70
2022-07-31T08:32:42.508Z,1.80
2022-07-31T08:35:15.683Z,1.50
2022-07-31T08:38:02.422Z,1.55
2022-07-31T08:40:30.797Z,1.63
2022-07-31T08:43:01.001Z,1.83
2022-07-31T08:45:28.654Z,1.60
2022-07-31T08:48:16.301Z,1.50
2022-07-31T08:50:52.071Z,1.20
2022-07-31T08:53:48.581Z,1.63
2022-07-31T08:56:18.992Z,1.45
2022-07-31T08:58:45.631Z,1.40
2022-07-31T09:01:13.213Z,1.30
2022-07-31T09:03:40.176Z,1.25
2022-07-31T09:06:10.841Z,1.30
2022-07-31T09:08:38.043Z,1.42
2022-07-31T09:11:13.233Z,1.55
2022-07-31T09:14:02.861Z,1.30
2022-07-31T09:16:51.600Z,1.00
2022-07-31T09:19:52.786Z,1.52
2022-07-31T09:22:28.245Z,1.52
2022-07-31T09:25:12.828Z,1.38
2022-07-31T09:27:40.184Z,1.40
2022-07-31T09:30:08.718Z,1.38
2022-07-31T09:32:54.000Z,1.35
2022-07-31T09:35:50.354Z,1.20
2022-07-31T09:38:18.445Z,1.23
2022-07-31T09:41:56.546Z,1.20
2022-07-31T09:44:14.066Z,1.10
2022-07-31T09:46:40.683Z,1.60
2022-07-31T09:49:08.239Z,1.40
2022-07-31T09:51:44.823Z,1.25
2022-07-31T09:54:24.394Z,1.13
2022-07-31T09:57:13.417Z,1.02
2022-07-31T09:59:43.943Z,1.23
2022-07-31T10:02:15.521Z,1.30
2022-07-31T10:04:46.921Z,1.20
2022-07-31T10:07:32.348Z,1.10
2022-07-31T10:10:08.145Z,1.08
2022-07-31T10:13:01.986Z,1.25
2022-07-31T10:15:29.991Z,1.20
2022-07-31T10:18:44.079Z,1.10
2022-07-31T10:21:52.044Z,1.25
2022-07-31T10:24:28.145Z,1.02
2022-07-31T10:27:01.727Z,1.20
2022-07-31T10:29:39.565Z,1.23
2022-07-31T10:32:08.629Z,1.20
2022-07-31T10:34:40.406Z,1.10
2022-07-31T10:37:45.316Z,1.20
2022-07-31T10:40:36.697Z,1.20
2022-07-31T10:43:10.083Z,1.10
2022-07-31T10:45:53.956Z,1.30
2022-07-31T10:48:50.626Z,1.27
2022-07-31T10:51:48.134Z,0.90
2022-07-31T10:54:47.698Z,1.10
2022-07-31T10:57:34.919Z,1.17
2022-07-31T11:00:34.707Z,1.10
2022-07-31T11:03:14.856Z,1.00
2022-07-31T11:06:03.154Z,0.93
2022-07-31T11:08:54.094Z,1.15
2022-07-31T11:11:39.140Z,1.10
2022-07-31T11:14:33.833Z,1.08
2022-07-31T11:18:17.359Z,1.10
2022-07-31T11:20:32.017Z,1.20
2022-07-31T11:22:58.785Z,1.10
2022-07-31T11:25:29.391Z,1.00
2022-07-31T11:28:10.989Z,1.00
2022-07-31T11:31:00.664Z,1.10
2022-07-31T11:33:39.538Z,0.80
2022-07-31T11:36:17.691Z,1.00
2022-07-31T11:38:49.639Z,1.00
2022-07-31T11:41:17.074Z,1.00
2022-07-31T11:43:51.249Z,0.70
2022-07-31T11:46:28.782Z,0.98
2022-07-31T11:48:57.091Z,0.90
2022-07-31T11:51:25.030Z,0.98
2022-07-31T11:53:57.041Z,0.90
2022-07-31T11:56:26.828Z,0.80
2022-07-31T11:58:58.012Z,0.75
2022-07-31T12:01:27.668Z,1.08
2022-07-31T12:03:55.811Z,0.80
2022-07-31T12:06:22.435Z,0.80
2022-07-31T12:08:50.516Z,0.82
2022-07-31T12:11:19.115Z,1.00
2022-07-31T12:13:47.503Z,0.80
2022-07-31T12:16:14.701Z,1.10
2022-07-31T12:18:47.285Z,0.85
2022-07-31T12:21:14.423Z,0.80
2022-07-31T12:23:48.686Z,0.80
2022-07-31T12:26:30.260Z,0.75
2022-07-31T12:28:58.802Z,0.80
2022-07-31T12:31:25.750Z,0.70
2022-07-31T12:33:52.582Z,0.77
2022-07-31T12:36:19.466Z,0.93
2022-07-31T12:38:48.884Z,0.77
2022-07-31T12:41:16.164Z,0.80
2022-07-31T12:43:43.859Z,0.80
2022-07-31T12:46:33.682Z,1.02
2022-07-31T12:49:00.566Z,0.90
2022-07-31T12:51:45.309Z,1.00
2022-07-31T12:54:15.700Z,0.85
2022-07-31T12:56:43.756Z,0.90
2022-07-31T12:59:12.097Z,0.90
2022-07-31T13:01:38.988Z,1.10
2022-07-31T13:04:07.817Z,0.80
2022-07-31T13:06:36.030Z,0.82
2022-07-31T13:09:02.722Z,0.90
2022-07-31T13:11:45.534Z,1.00
2022-07-31T13:14:13.943Z,0.95
2022-07-31T13:16:40.514Z,0.90
2022-07-31T13:19:07.959Z,1.02
2022-07-31T13:21:40.571Z,0.80
2022-07-31T13:24:17.690Z,0.93
2022-07-31T13:26:45.349Z,0.80
2022-07-31T13:29:12.544Z,1.00
2022-07-31T13:31:39.403Z,0.80
2022-07-31T13:34:06.520Z,0.98
2022-07-31T13:36:36.194Z,0.80
2022-07-31T13:39:09.851Z,0.95
2022-07-31T13:41:37.058Z,1.17
2022-07-31T13:44:06.584Z,0.98
2022-07-31T13:46:33.308Z,1.10
2022-07-31T13:49:02.202Z,1.23
2022-07-31T13:51:29.861Z,1.00
2022-07-31T13:53:56.854Z,1.20
2022-07-31T13:56:39.423Z,1.00
2022-07-31T13:59:13.667Z,1.33
2022-07-31T14:02:03.121Z,1.10
2022-07-31T14:04:32.183Z,1.10
2022-07-31T14:07:03.411Z,1.20
2022-07-31T14:09:31.220Z,1.00
2022-07-31T14:11:57.726Z,1.05
2022-07-31T14:14:24.315Z,1.17
2022-07-31T14:16:50.975Z,1.10
2022-07-31T14:19:17.693Z,1.42
2022-07-31T14:21:50.051Z,1.40
2022-07-31T14:24:23.237Z,1.48
2022-07-31T14:26:49.826Z,1.20
2022-07-31T14:29:16.337Z,1.17
2022-07-31T14:31:42.873Z,1.38
2022-07-31T14:34:09.438Z,1.15
2022-07-31T14:36:36.617Z,1.40
2022-07-31T14:39:03.891Z,1.20
2022-07-31T14:41:30.479Z,1.35
2022-07-31T14:43:57.019Z,1.40
2022-07-31T14:46:23.687Z,1.40
2022-07-31T14:48:50.586Z,1.20
2022-07-31T14:51:18.856Z,1.50
2022-07-31T14:53:46.829Z,1.75
2022-07-31T14:56:13.660Z,1.58
2022-07-31T14:58:57.811Z,1.50
2022-07-31T15:01:26.837Z,1.40
2022-07-31T15:03:57.440Z,1.35
2022-07-31T15:06:43.844Z,1.38
2022-07-31T15:09:10.582Z,1.20
2022-07-31T15:11:59.609Z,1.30
2022-07-31T15:14:23.973Z,1.50
2022-07-31T15:16:50.733Z,1.40
2022-07-31T15:19:17.308Z,1.60
2022-07-31T15:22:10.902Z,1.70
2022-07-31T15:24:33.305Z,1.40
2022-07-31T15:26:59.905Z,1.50
2022-07-31T15:30:04.562Z,1.48
2022-07-31T15:32:13.552Z,1.40
2022-07-31T15:34:40.171Z,1.40
2022-07-31T15:37:07.227Z,1.50
2022-07-31T15:39:34.130Z,1.60
2022-07-31T15:42:01.613Z,1.40
2022-07-31T15:44:28.242Z,1.50
2022-07-31T15:46:54.969Z,1.52
2022-07-31T15:49:21.624Z,1.40
2022-07-31T15:51:48.326Z,1.70
2022-07-31T15:54:15.225Z,1.63
2022-07-31T15:56:41.804Z,1.60
2022-07-31T15:59:08.365Z,1.80
2022-07-31T16:01:35.010Z,1.77
2022-07-31T16:04:01.647Z,1.50
2022-07-31T16:06:32.226Z,1.77
2022-07-31T16:08:59.509Z,1.50
2022-07-31T16:12:05.377Z,1.40
2022-07-31T16:14:12.642Z,1.52
2022-07-31T16:16:43.001Z,1.70
2022-07-31T16:19:12.173Z,1.63
2022-07-31T16:21:41.785Z,1.42
2022-07-31T16:24:08.350Z,1.40
2022-07-31T16:26:37.551Z,1.40
2022-07-31T16:29:04.242Z,1.55
2022-07-31T16:31:30.984Z,1.60
2022-07-31T16:33:57.748Z,1.60
2022-07-31T16:36:24.817Z,1.52
2022-07-31T16:39:18.422Z,1.80
2022-07-31T16:41:38.862Z,1.73
2022-07-31T16:44:20.911Z,1.58
2022-07-31T16:46:51.392Z,1.63
2022-07-31T16:49:36.359Z,1.60
2022-07-31T16:52:05.457Z,1.73
2022-07-31T16:54:32.068Z,1.75
2022-07-31T16:56:58.618Z,1.50
2022-07-31T16:59:25.280Z,1.67
2022-07-31T17:01:56.757Z,1.90
2022-07-31T17:04:27.055Z,1.42
2022-07-31T17:06:53.824Z,1.42
2022-07-31T17:09:20.447Z,1.60
2022-07-31T17:11:52.190Z,1.60
2022-07-31T17:14:20.816Z,1.60
2022-07-31T17:16:49.455Z,1.70
2022-07-31T17:19:42.038Z,1.60
2022-07-31T17:22:07.231Z,1.67
2022-07-31T17:24:36.536Z,1.98
2022-07-31T17:27:05.467Z,1.83
2022-07-31T17:29:32.437Z,1.83
2022-07-31T17:31:58.996Z,1.52
2022-07-31T17:34:25.918Z,1.65
2022-07-31T17:36:53.298Z,1.60
2022-07-31T17:39:19.874Z,1.60
2022-07-31T17:41:46.443Z,1.40
2022-07-31T17:44:14.722Z,1.73
2022-07-31T17:46:48.280Z,1.60
2022-07-31T17:49:19.503Z,1.80
2022-07-31T17:51:59.457Z,1.75
2022-07-31T17:54:28.325Z,1.60
2022-07-31T17:56:54.925Z,1.50
2022-07-31T17:59:21.778Z,1.50
2022-07-31T18:01:51.931Z,1.67
2022-07-31T18:04:20.207Z,1.65
2022-07-31T18:06:49.350Z,1.65
2022-07-31T18:09:20.416Z,1.88
2022-07-31T18:11:47.079Z,1.50
2022-07-31T18:14:13.628Z,1.80
2022-07-31T18:16:41.249Z,1.70
2022-07-31T18:19:07.901Z,1.40
2022-07-31T18:21:34.608Z,2.00
2022-07-31T18:24:05.236Z,1.80
2022-07-31T18:26:32.153Z,1.85
2022-07-31T18:28:58.741Z,1.70
2022-07-31T18:31:34.072Z,1.50
2022-07-31T18:34:04.037Z,1.45
2022-07-31T18:36:31.702Z,1.60
2022-07-31T18:38:58.459Z,1.70
2022-07-31T18:41:25.023Z,1.70
2022-07-31T18:43:51.594Z,1.67
2022-07-31T18:46:19.882Z,1.58
2022-07-31T18:48:46.580Z,1.70
2022-07-31T18:51:13.253Z,1.80
2022-07-31T18:53:40.000Z,1.80
2022-07-31T18:56:06.546Z,1.67
2022-07-31T18:58:33.206Z,1.50
2022-07-31T19:00:59.926Z,2.03
2022-07-31T19:03:26.613Z,1.80
2022-07-31T19:05:53.643Z,1.63
2022-07-31T19:08:20.730Z,2.13
2022-07-31T19:10:49.349Z,1.70
2022-07-31T19:13:18.815Z,1.60
2022-07-31T19:15:47.360Z,1.63
2022-07-31T19:18:14.235Z,2.00
2022-07-31T19:21:00.116Z,1.90
2022-07-31T19:23:32.877Z,1.70
2022-07-31T19:26:03.869Z,1.80
2022-07-31T19:28:34.872Z,2.07
2022-07-31T19:31:01.592Z,1.87
2022-07-31T19:33:28.366Z,1.90
2022-07-31T19:36:00.960Z,1.90
2022-07-31T19:38:28.997Z,1.83
2022-07-31T19:40:55.697Z,1.80
2022-07-31T19:43:22.576Z,1.77
2022-07-31T19:46:02.566Z,1.90
2022-07-31T19:48:36.701Z,2.00
2022-07-31T19:51:04.045Z,1.70
2022-07-31T19:53:30.649Z,2.13
2022-07-31T19:55:57.413Z,1.70
2022-07-31T19:58:23.992Z,1.70
2022-07-31T20:00:50.595Z,1.70
2022-07-31T20:03:17.411Z,2.07
2022-07-31T20:05:44.020Z,1.70
2022-07-31T20:08:10.613Z,2.00
2022-07-31T20:10:37.258Z,2.00
2022-07-31T20:13:03.918Z,2.00
2022-07-31T20:15:50.895Z,1.80
2022-07-31T20:18:26.756Z,2.23
2022-07-31T20:21:06.848Z,2.20
2022-07-31T20:23:37.188Z,2.00
2022-07-31T20:26:08.769Z,1.90
2022-07-31T20:28:36.265Z,2.13
2022-07-31T20:31:03.547Z,2.13
2022-07-31T20:33:30.125Z,2.30
2022-07-31T20:35:56.716Z,2.27
2022-07-31T20:38:24.541Z,2.30
2022-07-31T20:40:55.327Z,2.20
2022-07-31T20:43:28.273Z,1.93
2022-07-31T20:45:59.588Z,2.30
2022-07-31T20:48:31.835Z,2.10
2022-07-31T20:51:03.300Z,2.07
2022-07-31T20:53:31.004Z,2.27
2022-07-31T20:55:58.323Z,2.30
2022-07-31T20:58:25.744Z,1.90
2022-07-31T21:00:53.630Z,2.37
2022-07-31T21:03:20.898Z,2.10
2022-07-31T21:05:48.001Z,2.30
2022-07-31T21:08:15.129Z,2.50
2022-07-31T21:10:41.775Z,2.23
2022-07-31T21:13:09.091Z,2.60
2022-07-31T21:15:42.340Z,2.50
2022-07-31T21:18:18.254Z,2.13
2022-07-31T21:20:51.198Z,2.20
2022-07-31T21:23:25.773Z,2.37
2022-07-31T21:25:54.064Z,2.30
2022-07-31T21:28:21.624Z,2.30
2022-07-31T21:30:48.841Z,2.00
2022-07-31T21:33:16.287Z,1.80
2022-07-31T21:35:43.148Z,2.13
2022-07-31T21:38:12.316Z,1.80
2022-07-31T21:40:40.004Z,1.70
2022-07-31T21:43:07.179Z,1.90
2022-07-31T21:45:49.704Z,1.70
2022-07-31T21:48:22.787Z,1.60
2022-07-31T21:50:49.627Z,1.40
2022-07-31T21:53:16.173Z,1.57
2022-07-31T21:55:42.859Z,1.50
2022-07-31T21:58:09.647Z,1.33
2022-07-31T22:00:36.824Z,1.30
2022-07-31T22:03:04.398Z,1.33
2022-07-31T22:05:50.237Z,1.43
2022-07-31T22:08:17.202Z,1.43
2022-07-31T22:10:44.311Z,2.00
2022-07-31T22:13:10.903Z,2.10
2022-07-31T22:15:50.355Z,1.93
2022-07-31T22:18:26.252Z,2.07
2022-07-31T22:20:53.949Z,2.10
2022-07-31T22:23:20.909Z,2.30
2022-07-31T22:25:48.978Z,2.40
2022-07-31T22:28:19.958Z,2.07
2022-07-31T22:30:47.178Z,2.13
2022-07-31T22:33:14.305Z,2.37
2022-07-31T22:35:41.109Z,2.17
2022-07-31T22:38:08.858Z,2.27
2022-07-31T22:40:35.622Z,2.27
2022-07-31T22:43:03.492Z,1.97
2022-07-31T22:45:30.557Z,2.13
2022-07-31T22:47:57.448Z,1.93
2022-07-31T22:50:24.681Z,1.70
2022-07-31T22:52:51.900Z,1.97
2022-07-31T22:55:18.527Z,1.80
2022-07-31T22:57:45.198Z,1.43
2022-07-31T23:00:13.888Z,1.50
2022-07-31T23:02:41.671Z,1.40
2022-07-31T23:05:09.121Z,1.27
2022-07-31T23:07:36.186Z,1.17
2022-07-31T23:10:03.077Z,1.30
2022-07-31T23:12:29.803Z,1.50
2022-07-31T23:14:56.436Z,1.50
2022-07-31T23:17:23.636Z,1.30
2022-07-31T23:19:53.669Z,1.30
2022-07-31T23:22:33.198Z,1.10
2022-07-31T23:25:02.227Z,1.10
2022-07-31T23:27:28.780Z,1.20
2022-07-31T23:29:55.341Z,1.20
2022-07-31T23:32:21.903Z,1.00
2022-07-31T23:34:48.422Z,0.90
2022-07-31T23:37:15.012Z,0.90
2022-07-31T23:39:41.711Z,1.37
2022-07-31T23:42:26.901Z,1.17
2022-07-31T23:44:53.629Z,1.30
2022-07-31T23:47:20.624Z,1.00
2022-07-31T23:49:47.751Z,1.50
2022-07-31T23:52:14.300Z,1.40
2022-07-31T23:54:41.031Z,1.30
2022-07-31T23:57:07.541Z,1.20
2022-07-31T23:59:34.132Z,1.33
